createdAt,value
2018-06-12T00:00:06.568Z,7.60
2018-06-12T00:02:37.169Z,7.30
2018-06-12T00:05:07.830Z,6.60
2018-06-12T00:07:38.404Z,6.67
2018-06-12T00:10:09.008Z,6.97
2018-06-12T00:12:39.579Z,6.67
2018-06-12T00:15:10.200Z,7.50
2018-06-12T00:17:40.767Z,7.03
2018-06-12T00:20:11.387Z,7.03
2018-06-12T00:22:41.950Z,7.60
2018-06-12T00:25:12.545Z,7.37
2018-06-12T00:27:43.103Z,7.60
2018-06-12T00:30:13.690Z,7.30
2018-06-12T00:32:44.243Z,7.87
2018-06-12T00:35:14.895Z,7.20
2018-06-12T00:37:45.503Z,7.87
2018-06-12T00:40:15.827Z,8.00
2018-06-12T00:42:46.280Z,6.77
2018-06-12T00:45:16.869Z,7.50
2018-06-12T00:47:47.451Z,7.97
2018-06-12T00:50:18.052Z,8.83
2018-06-12T00:52:48.627Z,7.77
2018-06-12T00:55:19.209Z,9.10
2018-06-12T00:57:49.769Z,8.20
2018-06-12T01:00:20.441Z,7.77
2018-06-12T01:02:50.999Z,8.43
2018-06-12T01:05:21.603Z,9.67
2018-06-12T01:07:52.153Z,8.50
2018-06-12T01:10:22.696Z,8.67
2018-06-12T01:12:53.281Z,8.70
2018-06-12T01:15:23.793Z,9.33
2018-06-12T01:17:54.337Z,9.10
2018-06-12T01:20:24.859Z,9.33
2018-06-12T01:22:55.414Z,10.03
2018-06-12T01:25:25.964Z,10.30
2018-06-12T01:27:56.497Z,10.00
2018-06-12T01:30:27.070Z,10.57
2018-06-12T01:32:57.608Z,10.07
2018-06-12T01:35:28.180Z,10.07
2018-06-12T01:37:58.722Z,8.60
2018-06-12T01:40:29.372Z,9.93
2018-06-12T01:42:59.914Z,9.77
2018-06-12T01:45:30.471Z,9.63
2018-06-12T01:48:01.028Z,9.57
2018-06-12T01:50:31.537Z,10.47
2018-06-12T01:53:02.169Z,10.20
2018-06-12T01:55:32.691Z,9.97
2018-06-12T01:58:03.221Z,10.13
2018-06-12T02:00:33.759Z,10.10
2018-06-12T02:03:04.371Z,11.30
2018-06-12T02:05:34.975Z,10.50
2018-06-12T02:08:05.542Z,10.83
2018-06-12T02:13:49.256Z,12.00
2018-06-12T02:16:19.826Z,12.63
2018-06-12T02:18:50.372Z,12.23
2018-06-12T02:21:20.986Z,11.37
2018-06-12T02:23:51.550Z,11.63
2018-06-12T02:26:22.106Z,11.70
2018-06-12T02:28:52.661Z,11.90
2018-06-12T02:31:23.240Z,13.97
2018-06-12T02:33:53.828Z,11.57
2018-06-12T02:36:24.374Z,14.10
2018-06-12T02:38:54.931Z,13.70
2018-06-12T02:41:25.461Z,12.70
2018-06-12T02:43:56.033Z,16.43
2018-06-12T02:46:26.606Z,14.73
2018-06-12T02:48:57.213Z,14.97
2018-06-12T02:51:27.779Z,15.60
2018-06-12T02:53:58.016Z,15.30
2018-06-12T02:56:28.470Z,16.57
2018-06-12T02:58:59.009Z,16.27
2018-06-12T03:01:29.617Z,15.50
2018-06-12T03:04:00.188Z,16.40
2018-06-12T03:06:30.690Z,16.77
2018-06-12T03:09:01.262Z,16.90
2018-06-12T03:11:31.816Z,19.20
2018-06-12T03:14:02.373Z,18.90
2018-06-12T03:16:32.939Z,17.53
2018-06-12T03:19:03.526Z,17.50
2018-06-12T03:21:34.065Z,17.40
2018-06-12T03:24:04.633Z,19.80
2018-06-12T03:26:35.183Z,20.47
2018-06-12T03:29:05.748Z,18.60
2018-06-12T03:31:36.292Z,18.17
2018-06-12T03:34:06.849Z,18.93
2018-06-12T03:36:37.407Z,19.10
2018-06-12T03:39:08.477Z,19.17
2018-06-12T03:41:39.054Z,18.97
2018-06-12T03:44:09.654Z,18.97
2018-06-12T03:46:40.201Z,18.40
2018-06-12T03:49:10.805Z,17.90
2018-06-12T03:51:41.374Z,17.30
2018-06-12T03:54:12.008Z,17.47
2018-06-12T03:56:42.563Z,16.03
2018-06-12T03:59:13.147Z,15.60
2018-06-12T04:01:43.699Z,16.17
2018-06-12T04:04:14.369Z,15.97
2018-06-12T04:06:44.954Z,15.27
2018-06-12T04:09:15.545Z,15.67
2018-06-12T04:11:46.133Z,14.20
2018-06-12T04:14:16.681Z,15.13
2018-06-12T04:16:47.229Z,16.50
2018-06-12T04:19:17.771Z,16.60
2018-06-12T04:21:48.335Z,16.47
2018-06-12T04:24:18.888Z,17.53
2018-06-12T04:26:49.431Z,15.83
2018-06-12T04:29:19.986Z,17.03
2018-06-12T04:31:50.707Z,16.57
2018-06-12T04:34:21.248Z,16.67
2018-06-12T04:36:51.856Z,16.67
2018-06-12T04:39:22.388Z,15.70
2018-06-12T04:41:52.969Z,16.53
2018-06-12T04:44:23.533Z,16.37
2018-06-12T04:46:54.110Z,15.20
2018-06-12T04:49:24.642Z,15.67
2018-06-12T04:51:55.303Z,15.67
2018-06-12T04:54:25.850Z,15.30
2018-06-12T04:56:56.425Z,15.37
2018-06-12T04:59:27.076Z,15.87
2018-06-12T05:01:58.980Z,17.37
2018-06-12T05:04:29.255Z,16.00
2018-06-12T05:06:59.730Z,16.87
2018-06-12T05:09:30.314Z,15.63
2018-06-12T05:12:00.912Z,15.10
2018-06-12T05:14:31.470Z,16.87
2018-06-12T05:17:01.996Z,15.63
2018-06-12T05:19:32.599Z,15.67
2018-06-12T05:22:03.118Z,14.30
2018-06-12T05:24:33.729Z,14.33
2018-06-12T05:27:04.327Z,14.33
2018-06-12T05:29:34.854Z,13.57
2018-06-12T05:32:05.554Z,13.90
2018-06-12T05:34:36.125Z,12.47
2018-06-12T05:37:21.602Z,11.70
2018-06-12T05:39:52.172Z,12.77
2018-06-12T05:42:24.318Z,12.10
2018-06-12T05:44:55.242Z,11.00
2018-06-12T05:47:25.877Z,12.00
2018-06-12T05:49:57.339Z,12.23
2018-06-12T05:52:27.904Z,12.00
2018-06-12T05:54:58.589Z,11.97
2018-06-12T05:57:29.251Z,11.47
2018-06-12T05:59:59.836Z,11.10
2018-06-12T06:02:30.496Z,11.03
2018-06-12T06:05:01.080Z,11.57
2018-06-12T06:07:31.645Z,11.33
2018-06-12T06:10:02.205Z,12.07
2018-06-12T06:12:32.757Z,11.27
2018-06-12T06:15:03.408Z,11.20
2018-06-12T06:17:34.009Z,12.60
2018-06-12T06:20:09.183Z,13.60
2018-06-12T06:22:41.734Z,13.70
2018-06-12T06:25:12.402Z,14.53
2018-06-12T06:27:42.962Z,14.07
2018-06-12T06:30:13.668Z,14.60
2018-06-12T06:32:44.894Z,14.40
2018-06-12T06:35:16.359Z,14.80
2018-06-12T06:37:47.033Z,16.23
2018-06-12T06:40:19.267Z,17.20
2018-06-12T06:42:50.174Z,17.87
2018-06-12T06:45:20.841Z,17.47
2018-06-12T06:47:52.297Z,17.30
2018-06-12T06:50:22.863Z,17.60
2018-06-12T06:52:53.466Z,19.23
2018-06-12T06:55:23.761Z,18.90
2018-06-12T06:57:54.190Z,19.37
2018-06-12T07:00:24.771Z,18.70
2018-06-12T07:02:55.487Z,17.87
2018-06-12T07:05:26.124Z,21.67
2018-06-12T07:07:56.735Z,21.30
2018-06-12T07:10:28.045Z,21.93
2018-06-12T07:12:58.564Z,20.77
2018-06-12T07:15:29.120Z,19.87
2018-06-12T07:17:59.669Z,20.70
2018-06-12T07:20:47.214Z,20.30
2018-06-12T07:23:17.780Z,19.13
2018-06-12T07:25:48.396Z,20.00
2018-06-12T07:28:19.616Z,19.03
2018-06-12T07:30:52.354Z,19.13
2018-06-12T07:33:22.960Z,20.00
2018-06-12T07:35:53.525Z,20.93
2018-06-12T07:38:24.141Z,19.50
2018-06-12T07:40:54.721Z,20.57
2018-06-12T07:43:25.333Z,19.37
2018-06-12T07:45:55.980Z,18.70
2018-06-12T07:48:26.544Z,18.20
2018-06-12T07:50:57.112Z,18.63
2018-06-12T07:53:27.716Z,21.20
2018-06-12T07:55:59.179Z,19.90
2018-06-12T07:58:29.848Z,20.43
2018-06-12T08:01:01.625Z,20.20
2018-06-12T08:03:32.108Z,19.13
2018-06-12T08:06:03.691Z,19.47
2018-06-12T08:08:34.256Z,18.30
2018-06-12T08:11:04.911Z,17.63
2018-06-12T08:13:35.475Z,17.97
2018-06-12T08:16:06.141Z,16.70
2018-06-12T08:18:36.768Z,17.03
2018-06-12T08:21:07.369Z,16.53
2018-06-12T08:23:37.995Z,14.43
2018-06-12T08:26:11.858Z,12.93
2018-06-12T08:28:42.662Z,14.27
2018-06-12T08:31:13.223Z,13.27
2018-06-12T08:33:45.564Z,13.00
2018-06-12T08:36:17.802Z,12.53
2018-06-12T08:38:48.480Z,12.03
2018-06-12T08:41:19.757Z,12.30
2018-06-12T08:43:50.324Z,11.10
2018-06-12T08:46:20.865Z,12.27
2018-06-12T08:48:51.426Z,12.90
2018-06-12T08:51:21.945Z,12.93
2018-06-12T08:53:52.530Z,13.37
2018-06-12T08:56:23.188Z,13.73
2018-06-12T08:58:53.749Z,13.90
2018-06-12T09:01:26.230Z,13.57
2018-06-12T09:03:56.770Z,11.63
2018-06-12T09:06:27.461Z,11.67
2018-06-12T09:08:58.030Z,10.53
2018-06-12T09:11:28.641Z,11.13
2018-06-12T09:13:59.213Z,10.40
2018-06-12T09:16:30.128Z,10.50
2018-06-12T09:19:00.684Z,9.63
2018-06-12T09:21:31.256Z,9.13
2018-06-12T09:24:01.846Z,8.47
2018-06-12T09:26:32.409Z,8.33
2018-06-12T09:29:07.244Z,8.50
2018-06-12T09:31:38.819Z,9.10
2018-06-12T09:34:20.585Z,9.87
2018-06-12T09:36:51.724Z,8.60
2018-06-12T09:39:23.018Z,9.03
2018-06-12T09:41:54.114Z,8.67
2018-06-12T09:44:25.353Z,9.07
2018-06-12T09:46:59.843Z,9.90
2018-06-12T09:49:31.007Z,10.23
2018-06-12T09:52:02.529Z,8.83
2018-06-12T09:54:33.602Z,8.00
2018-06-12T09:57:10.910Z,8.60
2018-06-12T09:59:41.459Z,8.40
2018-06-12T10:02:12.154Z,8.00
2018-06-12T10:04:43.111Z,8.10
2018-06-12T10:07:17.554Z,7.73
2018-06-12T10:09:48.967Z,7.80
2018-06-12T10:12:20.061Z,8.60
2018-06-12T10:15:00.098Z,8.23
2018-06-12T10:17:34.612Z,8.30
2018-06-12T10:20:06.218Z,8.17
2018-06-12T10:22:36.754Z,8.77
2018-06-12T10:25:07.541Z,8.13
2018-06-12T10:27:38.080Z,7.63
2018-06-12T10:30:08.679Z,6.23
2018-06-12T10:32:39.229Z,6.93
2018-06-12T10:35:09.917Z,5.43
2018-06-12T10:37:40.440Z,5.60
2018-06-12T10:40:11.123Z,4.97
2018-06-12T10:42:41.687Z,4.77
2018-06-12T10:45:12.229Z,4.87
2018-06-12T10:47:42.752Z,5.20
2018-06-12T10:50:17.823Z,5.00
2018-06-12T10:52:48.481Z,4.87
2018-06-12T10:55:20.657Z,4.73
2018-06-12T10:57:52.373Z,4.50
2018-06-12T11:00:22.970Z,4.80
2018-06-12T11:02:53.505Z,4.87
2018-06-12T11:05:24.143Z,4.43
2018-06-12T11:07:54.690Z,4.10
2018-06-12T11:10:25.405Z,4.33
2018-06-12T11:12:55.931Z,4.47
2018-06-12T11:15:26.512Z,4.50
2018-06-12T11:17:57.079Z,3.70
2018-06-12T11:20:27.656Z,4.10
2018-06-12T11:22:58.232Z,3.70
2018-06-12T11:25:28.940Z,3.50
2018-06-12T11:28:00.046Z,3.87
2018-06-12T11:30:30.690Z,3.57
2018-06-12T11:33:00.948Z,4.40
2018-06-12T11:35:31.435Z,3.63
2018-06-12T11:38:01.980Z,3.30
2018-06-12T11:40:32.575Z,3.43
2018-06-12T11:43:03.136Z,3.80
2018-06-12T11:45:33.740Z,3.83
2018-06-12T11:48:04.353Z,3.53
2018-06-12T11:50:35.003Z,3.43
2018-06-12T11:53:05.631Z,4.57
2018-06-12T11:55:36.317Z,3.90
2018-06-12T11:58:06.914Z,4.10
2018-06-12T12:00:37.489Z,3.70
2018-06-12T12:03:08.050Z,3.90
2018-06-12T12:05:38.670Z,4.07
2018-06-12T12:08:09.208Z,3.57
2018-06-12T12:10:39.792Z,4.90
2018-06-12T12:13:10.309Z,3.93
2018-06-12T12:15:41.068Z,3.97
2018-06-12T12:18:11.661Z,4.00
2018-06-12T12:20:42.221Z,3.80
2018-06-12T12:23:12.758Z,4.13
2018-06-12T12:25:43.364Z,4.23
2018-06-12T12:28:13.929Z,4.60
2018-06-12T12:30:44.498Z,4.40
2018-06-12T12:33:15.058Z,3.90
2018-06-12T12:35:45.611Z,4.00
2018-06-12T12:38:16.140Z,4.57
2018-06-12T12:40:46.749Z,4.50
2018-06-12T12:43:17.265Z,4.53
2018-06-12T12:45:47.845Z,4.20
2018-06-12T12:48:18.407Z,4.63
2018-06-12T12:50:48.922Z,4.63
2018-06-12T12:53:19.482Z,4.20
2018-06-12T12:55:50.067Z,4.70
2018-06-12T12:58:20.631Z,4.97
2018-06-12T13:00:51.172Z,5.47
2018-06-12T13:03:21.741Z,5.10
2018-06-12T13:05:52.289Z,5.10
2018-06-12T13:08:22.848Z,4.87
2018-06-12T13:10:53.412Z,5.00
2018-06-12T13:13:23.952Z,5.00
2018-06-12T13:15:54.466Z,5.43
2018-06-12T13:18:25.027Z,4.50
2018-06-12T13:20:55.573Z,5.27
2018-06-12T13:23:26.154Z,4.87
2018-06-12T13:25:56.725Z,4.60
2018-06-12T13:28:27.318Z,4.80
2018-06-12T13:30:57.903Z,4.40
2018-06-12T13:33:28.530Z,4.83
2018-06-12T13:35:59.373Z,3.70
2018-06-12T13:38:29.950Z,4.10
2018-06-12T13:41:00.514Z,5.00
2018-06-12T13:43:31.077Z,4.30
2018-06-12T13:46:01.649Z,4.80
2018-06-12T13:48:32.177Z,4.50
2018-06-12T13:51:02.788Z,4.20
2018-06-12T13:53:33.369Z,4.80
2018-06-12T13:56:03.994Z,4.30
2018-06-12T13:58:34.571Z,4.70
2018-06-12T14:01:05.124Z,4.60
2018-06-12T14:03:35.723Z,4.60
2018-06-12T14:06:06.366Z,5.10
2018-06-12T14:08:37.049Z,5.93
2018-06-12T14:11:07.695Z,6.10
2018-06-12T14:13:38.269Z,5.40
2018-06-12T14:16:08.880Z,5.30
2018-06-12T14:18:39.464Z,5.87
2018-06-12T14:21:10.041Z,6.20
2018-06-12T14:23:40.700Z,7.23
2018-06-12T14:26:11.272Z,6.70
2018-06-12T14:28:41.833Z,7.30
2018-06-12T14:31:12.395Z,7.20
2018-06-12T14:33:42.990Z,7.80
2018-06-12T14:36:13.524Z,7.60
2018-06-12T14:38:44.152Z,7.70
2018-06-12T14:41:14.724Z,8.50
2018-06-12T14:43:45.306Z,7.10
2018-06-12T14:46:15.886Z,8.63
2018-06-12T14:48:46.467Z,9.17
2018-06-12T14:51:17.056Z,9.20
2018-06-12T14:53:47.891Z,9.23
2018-06-12T14:56:18.458Z,9.10
2018-06-12T14:58:49.041Z,9.47
2018-06-12T15:01:19.606Z,8.13
2018-06-12T15:03:50.177Z,10.17
2018-06-12T15:06:20.771Z,10.03
2018-06-12T15:08:51.356Z,9.90
2018-06-12T15:11:21.923Z,9.33
2018-06-12T15:13:52.474Z,10.10
2018-06-12T15:16:23.130Z,9.80
2018-06-12T15:18:53.768Z,10.27
2018-06-12T15:21:24.450Z,10.70
2018-06-12T15:23:54.990Z,8.67
2018-06-12T15:26:25.521Z,10.33
2018-06-12T15:28:56.221Z,9.30
2018-06-12T15:31:26.775Z,10.33
2018-06-12T15:33:57.410Z,10.60
2018-06-12T15:36:27.967Z,8.73
2018-06-12T15:38:58.558Z,9.10
2018-06-12T15:41:29.112Z,10.33
2018-06-12T15:43:59.642Z,9.57
2018-06-12T15:46:30.268Z,9.47
2018-06-12T15:49:00.832Z,8.87
2018-06-12T15:51:31.423Z,9.80
2018-06-12T15:54:02.024Z,8.60
2018-06-12T15:56:32.580Z,7.27
2018-06-12T15:59:03.146Z,7.93
2018-06-12T16:01:33.701Z,8.53
2018-06-12T16:04:04.264Z,8.27
2018-06-12T16:06:34.816Z,8.63
2018-06-12T16:09:08.406Z,7.47
2018-06-12T16:11:39.004Z,7.70
2018-06-12T16:14:09.540Z,8.70
2018-06-12T16:16:40.137Z,7.87
2018-06-12T16:19:10.684Z,7.43
2018-06-12T16:21:41.272Z,6.50
2018-06-12T16:24:11.785Z,7.07
2018-06-12T16:26:42.347Z,7.70
2018-06-12T16:29:12.973Z,6.70
2018-06-12T16:31:43.489Z,7.40
2018-06-12T16:34:14.040Z,6.00
2018-06-12T16:36:45.216Z,7.57
2018-06-12T16:39:15.725Z,7.33
2018-06-12T16:41:46.319Z,7.20
2018-06-12T16:44:16.856Z,8.03
2018-06-12T16:46:47.416Z,7.47
2018-06-12T16:49:17.958Z,7.90
2018-06-12T16:51:48.532Z,6.97
2018-06-12T16:54:19.093Z,7.07
2018-06-12T16:56:49.753Z,7.57
2018-06-12T16:59:20.344Z,6.77
2018-06-12T17:01:50.933Z,7.57
2018-06-12T17:04:21.610Z,6.87
2018-06-12T17:06:52.245Z,7.87
2018-06-12T17:09:22.870Z,6.73
2018-06-12T17:11:53.489Z,6.97
2018-06-12T17:14:24.104Z,7.10
2018-06-12T17:16:54.945Z,7.03
2018-06-12T17:19:25.626Z,7.03
2018-06-12T17:21:56.230Z,7.37
2018-06-12T17:24:26.838Z,7.93
2018-06-12T17:26:57.456Z,7.03
2018-06-12T17:29:27.984Z,7.07
2018-06-12T17:31:58.573Z,7.10
2018-06-12T17:34:29.208Z,7.07
2018-06-12T17:36:59.803Z,7.33
2018-06-12T17:39:30.450Z,6.53
2018-06-12T17:42:01.012Z,7.00
2018-06-12T17:44:32.097Z,6.90
2018-06-12T17:47:02.660Z,6.03
2018-06-12T17:49:33.229Z,6.20
2018-06-12T17:52:03.854Z,6.93
2018-06-12T17:54:34.551Z,6.97
2018-06-12T17:57:05.118Z,5.97
2018-06-12T17:59:35.655Z,7.70
2018-06-12T18:02:06.822Z,7.20
2018-06-12T18:04:37.555Z,6.50
2018-06-12T18:07:08.152Z,6.33
2018-06-12T18:09:38.694Z,6.63
2018-06-12T18:12:09.272Z,6.70
2018-06-12T18:14:39.809Z,6.70
2018-06-12T18:17:10.407Z,6.20
2018-06-12T18:19:41.047Z,6.93
2018-06-12T18:22:11.618Z,7.03
2018-06-12T18:24:42.183Z,6.23
2018-06-12T18:27:12.849Z,6.70
2018-06-12T18:29:43.442Z,6.17
2018-06-12T18:32:14.065Z,6.00
2018-06-12T18:34:44.654Z,7.13
2018-06-12T18:37:15.011Z,6.93
2018-06-12T18:39:45.569Z,7.00
2018-06-12T18:42:16.143Z,6.60
2018-06-12T18:44:46.742Z,6.63
2018-06-12T18:47:17.315Z,6.43
2018-06-12T18:49:47.888Z,5.73
2018-06-12T18:52:18.583Z,6.20
2018-06-12T18:54:48.869Z,6.70
2018-06-12T18:57:19.401Z,5.90
2018-06-12T18:59:49.982Z,5.67
2018-06-12T19:02:20.575Z,6.73
2018-06-12T19:04:51.215Z,6.23
2018-06-12T19:07:21.806Z,6.20
2018-06-12T19:09:52.472Z,6.90
2018-06-12T19:12:23.107Z,6.80
2018-06-12T19:14:53.868Z,5.93
2018-06-12T19:17:24.454Z,6.47
2018-06-12T19:19:55.066Z,5.77
2018-06-12T19:22:25.732Z,6.23
2018-06-12T19:24:56.410Z,6.60
2018-06-12T19:27:27.004Z,6.53
2018-06-12T19:29:57.625Z,7.30
2018-06-12T19:32:28.275Z,6.70
2018-06-12T19:34:58.839Z,6.30
2018-06-12T19:37:29.470Z,8.13
2018-06-12T19:40:00.128Z,7.60
2018-06-12T19:42:30.748Z,7.47
2018-06-12T19:45:01.330Z,7.03
2018-06-12T19:47:31.894Z,7.23
2018-06-12T19:50:02.455Z,7.17
2018-06-12T19:52:33.046Z,7.20
2018-06-12T19:55:03.691Z,6.93
2018-06-12T19:57:34.454Z,6.87
2018-06-12T20:00:05.160Z,7.33
2018-06-12T20:02:35.763Z,7.13
2018-06-12T20:05:06.381Z,6.03
2018-06-12T20:07:37.044Z,6.00
2018-06-12T20:10:07.697Z,6.17
2018-06-12T20:12:38.243Z,5.57
2018-06-12T20:15:08.998Z,5.20
2018-06-12T20:17:39.928Z,4.73
2018-06-12T20:20:10.808Z,4.37
2018-06-12T20:22:41.393Z,4.27
2018-06-12T20:25:12.048Z,5.10
2018-06-12T20:27:42.697Z,5.03
2018-06-12T20:30:13.289Z,4.97
2018-06-12T20:32:43.876Z,5.47
2018-06-12T20:35:14.517Z,4.90
2018-06-12T20:37:45.065Z,4.40
2018-06-12T20:40:15.623Z,4.00
2018-06-12T20:42:46.935Z,4.70
2018-06-12T20:45:17.509Z,5.27
2018-06-12T20:47:48.171Z,3.90
2018-06-12T20:50:18.801Z,3.57
2018-06-12T20:52:49.341Z,4.27
2018-06-12T20:55:19.973Z,4.10
2018-06-12T20:57:50.585Z,3.70
2018-06-12T21:00:21.202Z,3.70
2018-06-12T21:02:51.754Z,3.97
2018-06-12T21:05:22.391Z,4.30
2018-06-12T21:07:52.941Z,3.90
2018-06-12T21:10:23.519Z,4.67
2018-06-12T21:12:54.075Z,4.27
2018-06-12T21:15:24.652Z,4.00
2018-06-12T21:17:55.236Z,4.17
2018-06-12T21:20:25.817Z,4.23
2018-06-12T21:22:56.362Z,4.20
2018-06-12T21:25:26.906Z,4.23
2018-06-12T21:27:57.536Z,4.43
2018-06-12T21:30:28.101Z,4.00
2018-06-12T21:32:58.752Z,4.17
2018-06-12T21:35:29.351Z,4.10
2018-06-12T21:38:00.051Z,3.97
2018-06-12T21:40:30.737Z,4.20
2018-06-12T21:43:01.324Z,4.23
2018-06-12T21:45:31.920Z,4.47
2018-06-12T21:48:02.489Z,4.03
2018-06-12T21:50:33.077Z,4.00
2018-06-12T21:53:03.598Z,4.10
2018-06-12T21:55:34.198Z,4.07
2018-06-12T21:58:04.780Z,4.10
2018-06-12T22:00:37.037Z,4.80
2018-06-12T22:03:07.608Z,4.23
2018-06-12T22:05:38.205Z,3.60
2018-06-12T22:08:08.761Z,3.73
2018-06-12T22:10:39.332Z,3.93
2018-06-12T22:13:09.938Z,3.80
2018-06-12T22:15:40.524Z,3.13
2018-06-12T22:18:11.104Z,3.83
2018-06-12T22:20:41.717Z,4.03
2018-06-12T22:23:12.303Z,3.23
2018-06-12T22:25:42.929Z,3.37
2018-06-12T22:28:13.473Z,3.97
2018-06-12T22:30:44.107Z,3.83
2018-06-12T22:33:14.706Z,3.50
2018-06-12T22:35:45.290Z,3.03
2018-06-12T22:38:15.854Z,3.83
2018-06-12T22:40:46.412Z,3.30
2018-06-12T22:43:16.982Z,3.57
2018-06-12T22:45:47.599Z,3.70
2018-06-12T22:48:18.103Z,4.03
2018-06-12T22:50:48.706Z,3.60
2018-06-12T22:53:20.928Z,3.73
2018-06-12T22:55:51.478Z,3.63
2018-06-12T22:58:22.084Z,4.10
2018-06-12T23:00:52.625Z,3.57
2018-06-12T23:03:23.189Z,3.70
2018-06-12T23:05:53.722Z,3.97
2018-06-12T23:08:24.300Z,4.43
2018-06-12T23:10:54.880Z,3.90
2018-06-12T23:13:25.437Z,3.77
2018-06-12T23:15:55.973Z,4.63
2018-06-12T23:18:26.547Z,3.73
2018-06-12T23:21:19.898Z,4.43
2018-06-12T23:23:50.441Z,4.20
2018-06-12T23:26:20.968Z,4.63
2018-06-12T23:28:51.498Z,3.73
2018-06-12T23:31:22.048Z,4.50
2018-06-12T23:33:52.604Z,4.00
2018-06-12T23:36:23.157Z,3.40
2018-06-12T23:38:53.762Z,4.13
2018-06-12T23:41:24.325Z,3.63
2018-06-12T23:43:54.899Z,4.07
2018-06-12T23:46:25.544Z,3.60
2018-06-12T23:48:56.097Z,3.03
2018-06-12T23:51:26.708Z,3.43
2018-06-12T23:53:57.249Z,3.23
2018-06-12T23:56:27.830Z,2.80
2018-06-12T23:58:58.460Z,2.90
